• Join FlightAware (Why Join?)
  • Login
  • US Flag 
04:59PM EDT


 

Airport Tracker/Info


-or-


 

Live Flight TrackerFlight Track Log ✈ N164UP ✈ 20-Apr-2013 ✈ KSDF - KCAE

Flight Track Log - Related Links

Times and Time Zones

All times are in EDT time to prevent confusion due to time zone crossing. See the N164UP flight status page for this flight to view local times or setup timezone preferences in your user account.

Time Position Orientation Groundspeed Altitude Reporting Facility
EDT Latitude Longitude Course Direction KTS MPH feet Rate Location/Type
04:47AM 38.1510 -85.7400 164° South 165 190 1,700  Level FlightAware
04:47AM 38.1290 -85.7410 182° South 198 228 2,600 2,040 Climbing FlightAware
04:48AM 38.0980 -85.7420 181° South 244 281 3,600 2,700 Climbing FlightAware
04:48AM 38.0630 -85.7340 170° South 273 314 5,300 3,600 Climbing FlightAware
04:49AM 38.0380 -85.7100 143° Southeast 283 326 6,900 3,600 Climbing FlightAware
04:49AM 38.0080 -85.6790 141° Southeast 294 338 8,600 2,760 Climbing FlightAware
04:50AM 37.9740 -85.6430 140° Southeast 318 366 9,700 1,440 Climbing FlightAware
04:50AM 37.9240 -85.5900 140° Southeast 384 442 10,300 1,560 Climbing FlightAware
04:51AM 37.8680 -85.5290 139° Southeast 416 479 11,800 2,460 Climbing FlightAware
04:52AM 37.8000 -85.4540 139° Southeast 441 507 13,800 2,580 Climbing FlightAware
04:52AM 37.7360 -85.3840 139° Southeast 458 527 15,500 2,700 Climbing FlightAware
04:53AM 37.6650 -85.3040 138° Southeast 466 536 17,700 2,880 Climbing FlightAware
04:54AM 37.6020 -85.2270 136° Southeast 470 541 19,600 2,580 Climbing FlightAware
04:55AM 37.5290 -85.1390 136° Southeast 479 551 21,400 2,220 Climbing FlightAware
04:55AM 37.4650 -85.0610 136° Southeast 487 560 22,800 2,160 Climbing FlightAware
04:56AM 37.4099 -84.9967 137° Southeast 492 566 24,000 2,040 Climbing FlightAware ADS-B
04:56AM 37.3532 -84.9294 137° Southeast 497 572 25,100 1,800 Climbing FlightAware ADS-B
04:57AM 37.3012 -84.8673 136° Southeast 503 579 26,000 1,560 Climbing FlightAware ADS-B
04:57AM 37.2491 -84.8047 136° Southeast 510 587 26,700 1,320 Climbing FlightAware ADS-B
04:58AM 37.1958 -84.7413 137° Southeast 516 594 27,400 1,740 Climbing FlightAware ADS-B
04:58AM 37.1435 -84.6797 137° Southeast 512 589 28,500 2,580 Climbing FlightAware ADS-B
04:59AM 37.0682 -84.5920 137° Southeast 496 571 30,600 2,640 Climbing FlightAware ADS-B
05:00AM 37.0182 -84.5322 136° Southeast 482 555 31,800 2,040 Climbing FlightAware ADS-B
05:00AM 36.9688 -84.4752 137° Southeast 478 550 32,700 1,140 Climbing FlightAware ADS-B
05:01AM 36.9187 -84.4167 137° Southeast 475 547 33,000 240 Climbing FlightAware ADS-B
05:01AM 36.8669 -84.3568 137° Southeast 476 548 33,000  Level FlightAware ADS-B
05:02AM 36.8185 -84.3006 137° Southeast 478 550 33,000  Level FlightAware ADS-B
05:02AM 36.7681 -84.2404 136° Southeast 478 550 33,000  Level FlightAware ADS-B
05:03AM 36.7184 -84.1839 138° Southeast 478 550 33,000  Level FlightAware ADS-B
05:03AM 36.6694 -84.1275 137° Southeast 479 551 33,000  Level FlightAware ADS-B
05:04AM 36.6353 -84.0843 135° Southeast 487 560 33,000  Level FlightAware ADS-B
05:04AM 36.5896 -84.0223 133° Southeast 483 556 33,000  Level FlightAware ADS-B
05:05AM 36.5444 -83.9580 131° Southeast 484 557 33,000  Level FlightAware ADS-B
05:05AM 36.4998 -83.8960 132° Southeast 479 551 33,000  Level FlightAware ADS-B
05:06AM 36.4553 -83.8348 132° Southeast 477 549 33,000  Level FlightAware ADS-B
05:06AM 36.4105 -83.7737 132° Southeast 476 548 33,000  Level FlightAware ADS-B
05:07AM 36.3658 -83.7129 132° Southeast 475 547 33,000  Level FlightAware ADS-B
05:07AM 36.3213 -83.6500 131° Southeast 477 549 33,000  Level FlightAware ADS-B
05:08AM 36.2760 -83.5889 133° Southeast 477 549 33,000  Level FlightAware ADS-B
05:08AM 36.2292 -83.5241 132° Southeast 478 550 33,000  Level FlightAware ADS-B
05:09AM 36.1830 -83.4611 132° Southeast 480 552 33,000  Level FlightAware ADS-B
05:09AM 36.1375 -83.3998 133° Southeast 480 552 33,000  Level FlightAware ADS-B
05:10AM 36.0922 -83.3364 131° Southeast 481 554 33,000  Level FlightAware ADS-B
05:10AM 36.0454 -83.2733 133° Southeast 482 555 33,000  Level FlightAware ADS-B
05:11AM 35.9999 -83.2123 133° Southeast 481 554 33,000  Level FlightAware ADS-B
05:11AM 35.9532 -83.1493 132° Southeast 483 556 33,000  Level FlightAware ADS-B
05:12AM 35.9008 -83.0779 132° Southeast 486 559 33,000  Level FlightAware ADS-B
05:12AM 35.8548 -83.0146 132° Southeast 481 554 33,000  Level FlightAware ADS-B
05:13AM 35.8044 -82.9478 133° Southeast 482 555 33,000  Level FlightAware ADS-B
05:13AM 35.7588 -82.8872 133° Southeast 482 555 33,000  Level FlightAware ADS-B
05:14AM 35.7173 -82.8305 132° Southeast 481 554 33,000  Level FlightAware ADS-B
05:14AM 35.6700 -82.7682 133° Southeast 480 552 33,000  Level FlightAware ADS-B
05:15AM 35.6241 -82.7058 132° Southeast 481 554 33,000  Level FlightAware ADS-B
05:15AM 35.5779 -82.6437 132° Southeast 476 548 33,000  Level FlightAware ADS-B
05:16AM 35.5333 -82.5842 133° Southeast 472 543 33,000  Level FlightAware ADS-B
05:16AM 35.4849 -82.5196 133° Southeast 471 542 33,000  Level FlightAware ADS-B
05:17AM 35.4401 -82.4607 133° Southeast 469 540 33,000  Level FlightAware ADS-B
05:17AM 35.3952 -82.4020 133° Southeast 469 540 33,000  Level FlightAware ADS-B
05:18AM 35.3498 -82.3413 133° Southeast 473 544 33,000  Level FlightAware ADS-B
05:19AM 35.3011 -82.2785 134° Southeast 474 545 33,000  Level FlightAware ADS-B
05:19AM 35.2539 -82.2154 132° Southeast 474 545 33,000  Level FlightAware ADS-B
05:20AM 35.2072 -82.1545 133° Southeast 474 545 33,000  Level FlightAware ADS-B
05:20AM 35.1598 -82.0919 133° Southeast 473 544 33,000  Level FlightAware ADS-B
05:21AM 35.1108 -82.0272 133° Southeast 475 547 33,000  Level FlightAware ADS-B
05:21AM 35.0781 -81.9863 134° Southeast 472 543 33,000  Level FlightAware ADS-B
05:21AM 35.0343 -81.9368 137° Southeast 460 529 33,000  Level FlightAware ADS-B
05:22AM 34.9819 -81.8895 144° Southeast 448 516 33,000 -1,380 Level FlightAware ADS-B
05:23AM 34.9300 -81.8500 148° Southeast 438 504 31,600 -3,300 Descending FlightAware ADS-B
05:23AM 34.8778 -81.8109 148° Southeast 439 505 29,700 -3,540 Descending FlightAware ADS-B
05:24AM 34.8310 -81.7750 148° Southeast 441 507 28,000 -3,900 Descending FlightAware
05:24AM 34.7600 -81.7230 149° Southeast 443 510 25,100 -3,960 Descending FlightAware
05:25AM 34.7140 -81.6900 149° Southeast 441 507 21,800 -2,220 Descending FlightAware
05:26AM 34.6570 -81.6460 148° Southeast 441 507 21,800 1,560 Level FlightAware
05:27AM 34.7480 -81.7140 328° Northwest 442 509 24,700 -3,540 Climbing FlightAware
05:28AM 34.3780 -81.4400 149° Southeast 404 465 13,600 -7,020 Descending FlightAware
05:29AM 34.3050 -81.3870 149° Southeast 391 450 11,900 -1,080 Descending FlightAware
05:30AM 34.2400 -81.3380 148° Southeast 391 450 11,900 -2,220 Level FlightAware
05:31AM 34.1525 -81.3492 148° Southeast 322 371 7,900 -3,960 Descending Jacksonville Center
05:32AM 34.0831 -81.3106 155° Southeast 296 341 4,000 -2,940 Descending Jacksonville Center
05:33AM 34.0158 -81.2767 157° South 275 316 2,100 -1,020 Descending Jacksonville Center
05:34AM 33.9717 -81.2422 147° Southeast 232 267 2,000 -300 Descending Jacksonville Center
05:35AM 33.9419 -81.2078 136° Southeast 191 220 1,600 -420 Descending Jacksonville Center